AirportContent of METAR report
LYBEMETAR LYBE 010130Z 07003KT CAVOK M02/M08 Q1021 NOSIG=
LYBTMETAR LYBT 010130Z 03008KT CAVOK M02/M06 Q1021 NOSIG=
LYKVMETAR LYKV 010130Z VRB01KT 3000 SN BKN015 OVC030 00/00 Q1020 NOSIG=
LYNIMETAR LYNI 010130Z 33009KT 6000 +SN SCT008 OVC025 M00/M01 Q1019 NOSIG=
LYVRMETAR LYVR 010130Z AUTO 03003KT 350V060 CAVOK 00/M03 Q1022=
LYUZMETAR LYUZ 010130Z AUTO 33005KT CAVOK M05/M07 Q1016=
LYPGMETAR LYPG 010130Z 03009KT 340V050 9999 -RASN SCT016 BKN023 OVC070 03/M00 Q1015 NOSIG=
LYTVMETAR LYTV 010130Z VRB08KT 9999 -RA SCT030 OVC073 04/M00 Q1013=

Data loaded: 2020-04-01 01:42:18 UTC

METAR, TAF, AIRMET, GAMET, SIGMET

Important note: MET information on these web pages are informative and restricted to aeronautical users, must not be used for any commercial purpose, and do not replace flight documentation.